Gifford, Washington
Current Conditions -  °F | °C
As of 3:53 PM on Wednesday 26 Nov 2014 (Local Time) from KDEW Reporting Station
Haze Haze  
Wind Chill: 36°   Ceiling: 200
Heat Index: 36°   Visibility: 1.2mi
Dew Point: 36°   Wind: 3mph
Humidity: 100%   Direction: 30°NNE
Pressure: 30.11"   Gusts: NA
Location:  48.31°N, 118.15°W
Report Text: KDEW 262353Z AUTO 03003KT 1 1/4SM BR OVC002 02/02 A3011 RMK AO2 SLP216 T00220022 10022 20011 58007
Loading
Personal Weather Stations






























Interactive Weather Map New forecast layout! Learn more

10-Day Weather Forecast

Advertisements
Track Severe Weather on mobile